Главная страница
METAR-TAF:

METAR-TAF

Аэропорты :

Международный аэропорт Чингисхан

Улан-Батор, Монголия

широта: 47-55N, долгота: 106-52E, высота над уровнем моря: 1306 м

Текущие метеонаблюдения

Эта сводка был подготовлена 31 минут назад, в 11:00 UTC
Ветер 4 Узел от юго-юго-восточный
Температура 8°C
Влажность 61%
Давление 1016 hPa
Видимость 10 км и более
Нет облачности ниже 1500 м, и нет кучево-дождевой облачности

METAR: ZMUB 241100Z 16002MPS CAVOK 08/01 Q1016 NOSIG RMK QFE654.8 62

Время: 20:31 (11:31 UTC)

Прогноз

Эта сводка был подготовлена 6 часа и 51 минут назад, в 04:40 UTC
Прогноз действительный с 24-го 06 UTC до 25-го 12 UTC
Ветер 4 Узел переменных направлений
Видимость 10 км и более
Отдельные облака на высоте 3300 фута

TAF: ZMUB 240440Z 2406/2512 VRB02MPS 9999 SCT033 TX17/2407Z TNM01/2421Z

Метеонаблюдения и прогнозы для более 4000 аэропортов (сводки METAR и TAF).

Имеющиеся станции представлены на карте желтыми и красными точками.

Чтобы увидеть название станции, наведите на нее мышь.

Затем щелкните, чтобы увидеть метеонаблюдения и метеопрогнозы.

Управление картой: чтобы увеличить масштаб, щелкните зеленые кнопки с черным крестиком; чтобы уменьшить масштаб, щелкните зеленую кнопку с тире; для просмотра соседних карт щелкайте зеленые стрелки.


METAR-TAF: